Time;durP1;ratioP1;P1;durP2;ratioP2;P2;SDS_P1;SDS_P2;PMS_P1;PMS_P2;Temp;Humidity;BMP_temperature;BMP_pressure;BME280_temperature;BME280_humidity;BME280_pressure;Samples;Min_cycle;Max_cycle;Signal;HPM_P1;HPM_P2
2023/12/28 06:01:53;;;;;;;4.68;1.67;;;9.00;48.90;;;;;;4282753;23;20137;-79
2023/12/28 06:03:55;;;;;;;3.80;1.42;;;9.00;49.20;;;;;;4134424;28;20050;-80
2023/12/28 06:05:57;;;;;;;4.22;1.35;;;9.00;49.30;;;;;;4134479;28;20403;-78
2023/12/28 06:07:59;;;;;;;3.45;1.45;;;9.00;49.30;;;;;;4134493;28;20046;-80
2023/12/28 06:10:01;;;;;;;3.00;1.30;;;9.10;49.30;;;;;;4133816;28;20121;-79
2023/12/28 06:12:03;;;;;;;3.72;1.50;;;9.20;49.10;;;;;;4128349;28;20046;-79
2023/12/28 06:14:05;;;;;;;3.60;1.42;;;9.20;49.30;;;;;;4101285;28;20055;-79
2023/12/28 06:16:07;;;;;;;3.58;1.77;;;9.20;49.40;;;;;;4118202;28;20377;-78
2023/12/28 06:18:11;;;;;;;4.20;1.40;;;9.20;49.60;;;;;;4118974;28;20046;-79
2023/12/28 06:20:13;;;;;;;3.47;1.45;;;9.20;49.60;;;;;;4132276;28;20054;-80
2023/12/28 06:22:15;;;;;;;3.85;1.55;;;9.20;49.70;;;;;;4133892;28;20047;-79
2023/12/28 06:24:17;;;;;;;4.05;1.60;;;9.20;49.70;;;;;;4132089;28;20051;-80
2023/12/28 06:26:17;;;;;;;3.83;1.45;;;9.20;49.80;;;;;;4134033;28;20487;-80
2023/12/28 06:28:20;;;;;;;3.45;1.30;;;9.30;49.90;;;;;;4128877;28;20345;-78
2023/12/28 06:30:22;;;;;;;4.00;1.50;;;9.30;50.00;;;;;;4134432;28;20129;-79
2023/12/28 06:32:24;;;;;;;3.40;1.33;;;9.30;50.00;;;;;;4133913;28;20047;-79
2023/12/28 06:34:27;;;;;;;3.17;1.38;;;9.40;50.20;;;;;;4133078;28;20089;-81
2023/12/28 06:36:28;;;;;;;3.25;1.30;;;9.40;50.40;;;;;;4133497;28;20113;-80
2023/12/28 06:38:31;;;;;;;3.20;1.30;;;9.40;50.50;;;;;;4130350;28;20487;-80
2023/12/28 06:40:33;;;;;;;4.72;1.60;;;9.40;50.70;;;;;;4129749;28;20050;-79
2023/12/28 06:42:35;;;;;;;4.70;1.90;;;9.40;51.00;;;;;;4126836;28;20042;-78
2023/12/28 06:44:37;;;;;;;4.10;1.70;;;9.30;51.20;;;;;;4133184;28;20051;-78
2023/12/28 06:46:38;;;;;;;4.50;1.50;;;9.30;51.30;;;;;;4133853;28;20155;-79
2023/12/28 06:48:41;;;;;;;4.55;1.40;;;9.30;51.30;;;;;;4130463;28;20090;-77
2023/12/28 06:50:44;;;;;;;3.63;1.70;;;9.30;51.50;;;;;;4117701;28;20061;-80
2023/12/28 06:52:46;;;;;;;3.85;1.70;;;9.30;51.50;;;;;;4130098;28;20085;-79
2023/12/28 06:54:47;;;;;;;4.75;1.50;;;9.20;51.40;;;;;;4133374;28;20050;-77
2023/12/28 06:56:50;;;;;;;3.60;1.73;;;9.20;51.30;;;;;;4133465;28;20054;-80
2023/12/28 06:58:52;;;;;;;3.70;1.70;;;9.20;51.10;;;;;;4131749;28;20050;-79
2023/12/28 07:00:57;;;;;;;4.18;1.80;;;9.20;50.80;;;;;;4121706;28;20636;-79
2023/12/28 07:02:59;;;;;;;3.72;1.67;;;9.20;50.90;;;;;;4112677;28;20046;-79
2023/12/28 07:05:00;;;;;;;3.75;1.65;;;9.20;51.00;;;;;;4127833;28;20395;-79
2023/12/28 07:07:04;;;;;;;3.72;1.70;;;9.10;51.10;;;;;;4126376;28;20050;-81
2023/12/28 07:09:06;;;;;;;3.60;1.70;;;9.10;51.20;;;;;;4122764;28;20108;-79
2023/12/28 07:11:11;;;;;;;3.67;1.60;;;9.10;51.20;;;;;;4120798;28;20099;-81
2023/12/28 07:13:13;;;;;;;3.97;1.70;;;9.00;51.50;;;;;;4126627;28;20050;-83
2023/12/28 07:15:15;;;;;;;4.47;1.98;;;8.90;51.70;;;;;;4132432;28;20499;-80
2023/12/28 07:17:17;;;;;;;3.88;1.60;;;8.90;51.70;;;;;;4133461;28;20046;-79
2023/12/28 07:19:19;;;;;;;4.40;1.70;;;8.90;52.00;;;;;;4128827;28;20496;-80
2023/12/28 07:21:21;;;;;;;4.63;1.70;;;8.90;52.10;;;;;;4132763;28;20050;-78
2023/12/28 07:23:24;;;;;;;3.90;1.77;;;9.00;52.00;;;;;;4132569;28;20050;-80
2023/12/28 07:25:27;;;;;;;3.35;1.60;;;9.00;52.00;;;;;;4126464;28;20051;-78
2023/12/28 07:27:27;;;;;;;4.20;1.52;;;9.00;52.10;;;;;;4117279;28;20389;-80
2023/12/28 07:29:29;;;;;;;3.63;1.67;;;9.00;52.10;;;;;;4119417;28;20058;-79
2023/12/28 07:31:31;;;;;;;3.63;1.70;;;9.00;52.40;;;;;;4133299;28;20451;-81
2023/12/28 07:33:33;;;;;;;4.35;1.80;;;9.10;52.80;;;;;;4122249;28;20051;-80
2023/12/28 07:35:35;;;;;;;3.78;1.77;;;9.10;53.10;;;;;;4130578;28;20054;-79
2023/12/28 07:37:36;;;;;;;4.85;1.83;;;9.10;53.10;;;;;;4126045;28;20046;-77
2023/12/28 07:39:39;;;;;;;4.40;1.90;;;9.10;53.20;;;;;;4132503;28;20110;-76
2023/12/28 07:41:41;;;;;;;3.78;1.60;;;9.20;53.30;;;;;;4129785;28;20049;-78
2023/12/28 07:43:43;;;;;;;4.03;1.80;;;9.20;53.40;;;;;;4132956;28;20096;-77
2023/12/28 07:45:45;;;;;;;3.53;1.80;;;9.20;53.60;;;;;;4133167;28;20443;-79
2023/12/28 07:47:45;;;;;;;4.32;1.58;;;9.20;53.50;;;;;;4132904;28;20100;-78
2023/12/28 07:49:47;;;;;;;3.35;1.45;;;9.30;53.60;;;;;;4131925;28;20054;-81
2023/12/28 07:51:48;;;;;;;4.97;2.25;;;9.30;53.60;;;;;;4123095;28;20047;-79
2023/12/28 07:53:50;;;;;;;7.15;4.15;;;9.30;53.70;;;;;;4116844;28;20376;-77
2023/12/28 07:55:53;;;;;;;4.55;2.45;;;9.30;53.20;;;;;;4117233;28;20054;-80
2023/12/28 07:57:55;;;;;;;5.53;1.80;;;9.30;53.40;;;;;;4129217;28;20105;-79
2023/12/28 07:59:57;;;;;;;4.15;1.70;;;9.30;53.50;;;;;;4132806;28;20053;-80
2023/12/28 08:01:59;;;;;;;4.30;1.85;;;9.30;53.60;;;;;;4123738;28;20050;-78
2023/12/28 08:04:01;;;;;;;4.32;1.60;;;9.30;53.60;;;;;;4132431;28;20090;-79
2023/12/28 08:06:04;;;;;;;3.58;1.52;;;9.30;53.60;;;;;;4132733;28;20058;-79
2023/12/28 08:08:07;;;;;;;5.25;1.98;;;9.30;53.60;;;;;;4132740;28;20046;-78
2023/12/28 08:10:10;;;;;;;3.65;1.70;;;9.30;53.80;;;;;;4126063;28;20046;-79
2023/12/28 08:12:13;;;;;;;5.13;1.80;;;9.30;53.90;;;;;;4131931;28;20397;-78
2023/12/28 08:14:15;;;;;;;3.55;1.67;;;9.30;54.10;;;;;;4133527;28;20046;-81
2023/12/28 08:16:17;;;;;;;4.25;1.80;;;9.30;54.30;;;;;;4135583;28;20070;-79
2023/12/28 08:18:18;;;;;;;4.68;1.88;;;9.30;54.30;;;;;;4136554;28;20458;-80
2023/12/28 08:20:20;;;;;;;4.78;1.95;;;9.30;54.40;;;;;;4138174;28;20042;-78
2023/12/28 08:22:22;;;;;;;3.78;1.80;;;9.30;54.40;;;;;;4143322;28;20109;-79
2023/12/28 08:24:22;;;;;;;4.68;1.73;;;9.30;54.30;;;;;;4128453;28;20403;-80
2023/12/28 08:26:24;;;;;;;3.80;1.65;;;9.30;54.40;;;;;;4134028;28;20046;-79
2023/12/28 08:28:28;;;;;;;3.55;1.65;;;9.40;55.00;;;;;;4134108;28;20476;-79
2023/12/28 08:30:30;;;;;;;5.80;2.00;;;9.40;55.10;;;;;;4134322;28;20101;-80
2023/12/28 08:32:31;;;;;;;4.03;1.88;;;9.40;55.30;;;;;;4138297;28;20046;-80
2023/12/28 08:34:32;;;;;;;4.38;1.80;;;9.40;55.10;;;;;;4119040;28;20109;-80
2023/12/28 08:36:34;;;;;;;4.00;1.77;;;9.40;55.10;;;;;;4121283;28;20051;-81
2023/12/28 08:38:36;;;;;;;3.55;1.80;;;9.40;55.30;;;;;;4123245;28;20047;-79
2023/12/28 08:40:37;;;;;;;5.03;1.90;;;9.40;55.10;;;;;;4141753;28;20085;-80
2023/12/28 08:42:39;;;;;;;4.95;2.30;;;9.40;55.30;;;;;;4146531;28;20661;-79
2023/12/28 08:44:42;;;;;;;6.35;2.63;;;9.40;55.60;;;;;;4141775;28;20058;-78
2023/12/28 08:46:43;;;;;;;4.55;2.00;;;9.40;55.50;;;;;;4145203;28;20050;-80
2023/12/28 08:48:44;;;;;;;5.15;2.28;;;9.40;55.80;;;;;;4140869;28;20085;-80
2023/12/28 08:50:46;;;;;;;4.35;2.08;;;9.40;56.40;;;;;;4136751;28;20047;-82
2023/12/28 08:52:48;;;;;;;3.80;1.85;;;9.50;56.10;;;;;;4138545;28;20046;-82
2023/12/28 08:54:50;;;;;;;4.70;2.10;;;9.50;55.80;;;;;;4135547;28;20073;-82
2023/12/28 08:56:52;;;;;;;56.50;33.75;;;9.50;55.40;;;;;;4137709;28;20042;-83
2023/12/28 08:58:55;;;;;;;6.57;3.72;;;9.50;55.30;;;;;;4124740;28;20061;-83
2023/12/28 09:00:58;;;;;;;6.95;2.55;;;9.50;55.10;;;;;;4121297;28;20508;-81
2023/12/28 09:03:00;;;;;;;4.68;1.92;;;9.50;55.40;;;;;;4132739;28;20050;-86
2023/12/28 09:05:02;;;;;;;4.45;2.00;;;9.50;55.60;;;;;;4138668;28;20042;-85
2023/12/28 09:07:04;;;;;;;3.85;1.80;;;9.50;55.60;;;;;;4129890;28;20054;-88
2023/12/28 09:09:05;;;;;;;5.30;2.15;;;9.50;55.70;;;;;;4128012;28;20105;-79
2023/12/28 09:11:07;;;;;;;4.50;1.90;;;9.50;55.80;;;;;;4136836;28;20050;-80
2023/12/28 09:13:16;;;;;;;4.88;1.95;;;9.60;55.90;;;;;;4129114;28;20046;-78
2023/12/28 09:15:19;;;;;;;3.85;1.70;;;9.60;56.10;;;;;;4125156;28;20118;-77
2023/12/28 09:17:24;;;;;;;5.10;1.73;;;9.60;56.10;;;;;;4129672;28;20484;-79
2023/12/28 09:19:26;;;;;;;5.30;2.20;;;9.60;56.30;;;;;;4137024;28;20428;-78
2023/12/28 09:21:28;;;;;;;4.78;1.80;;;9.60;57.00;;;;;;4137431;28;20050;-79
2023/12/28 09:23:31;;;;;;;4.40;1.80;;;9.70;56.80;;;;;;4137390;28;20054;-77
2023/12/28 09:25:33;;;;;;;4.28;2.00;;;9.60;56.70;;;;;;4135960;28;20073;-79
2023/12/28 09:27:34;;;;;;;3.50;1.80;;;9.70;56.60;;;;;;4129871;28;20050;-78
2023/12/28 09:29:36;;;;;;;5.13;2.38;;;9.70;56.50;;;;;;4126471;28;20064;-79
2023/12/28 09:31:39;;;;;;;6.53;3.13;;;9.80;57.00;;;;;;4132781;28;20082;-81
2023/12/28 09:33:46;;;;;;;6.43;2.95;;;9.70;57.70;;;;;;4126267;28;20069;-83
2023/12/28 09:35:48;;;;;;;5.10;2.70;;;9.60;59.00;;;;;;4137946;28;20138;-82
2023/12/28 09:37:54;;;;;;;5.70;2.15;;;9.60;58.50;;;;;;4130876;28;20089;-82
2023/12/28 09:39:55;;;;;;;4.88;1.77;;;9.60;57.40;;;;;;4133842;28;20381;-79
2023/12/28 09:42:05;;;;;;;4.28;1.65;;;9.70;57.00;;;;;;4134205;28;20096;-77
2023/12/28 09:44:12;;;;;;;4.05;1.60;;;9.70;56.90;;;;;;4126157;28;20137;-78
2023/12/28 09:46:14;;;;;;;4.13;1.73;;;9.70;56.90;;;;;;4132807;28;20053;-78
2023/12/28 09:48:17;;;;;;;4.60;1.80;;;9.70;56.90;;;;;;4131157;28;20051;-78
2023/12/28 09:50:21;;;;;;;4.38;1.90;;;9.80;57.00;;;;;;4126381;28;20130;-77
2023/12/28 09:52:26;;;;;;;4.25;2.00;;;9.80;57.10;;;;;;4125718;28;20054;-80
2023/12/28 09:54:28;;;;;;;4.35;1.80;;;9.80;57.70;;;;;;4126027;28;20049;-80
2023/12/28 09:56:30;;;;;;;5.05;1.80;;;9.90;57.60;;;;;;4124871;28;20460;-78
2023/12/28 09:58:34;;;;;;;5.43;1.75;;;9.90;57.50;;;;;;4130816;28;20054;-78
2023/12/28 10:00:37;;;;;;;4.95;1.75;;;9.90;57.40;;;;;;4131223;28;20126;-80
2023/12/28 10:02:41;;;;;;;4.00;1.90;;;9.90;57.60;;;;;;4130319;28;20053;-77
2023/12/28 10:04:43;;;;;;;4.35;1.77;;;9.90;57.50;;;;;;4134475;28;20474;-79
2023/12/28 10:06:46;;;;;;;4.00;1.50;;;10.00;57.40;;;;;;4134345;28;20101;-79
2023/12/28 10:08:49;;;;;;;4.47;1.60;;;10.00;57.30;;;;;;4134259;28;20088;-78
2023/12/28 10:10:53;;;;;;;6.70;1.80;;;10.10;57.30;;;;;;4119774;28;20452;-78
2023/12/28 10:12:56;;;;;;;4.75;1.75;;;10.10;57.00;;;;;;4133346;28;20407;-77
2023/12/28 10:14:58;;;;;;;3.30;1.50;;;10.20;57.10;;;;;;4125486;28;20046;-78
2023/12/28 10:17:00;;;;;;;3.90;1.58;;;10.20;57.10;;;;;;4130652;28;20049;-78
2023/12/28 10:19:02;;;;;;;5.10;1.90;;;10.20;56.90;;;;;;4119275;28;20062;-79
2023/12/28 10:21:03;;;;;;;5.78;1.83;;;10.30;56.90;;;;;;4119625;28;20073;-80
2023/12/28 10:23:06;;;;;;;4.72;1.98;;;10.30;56.70;;;;;;4122274;28;20102;-77
2023/12/28 10:25:09;;;;;;;6.78;2.30;;;10.40;56.90;;;;;;4123972;28;20534;-80
2023/12/28 10:27:10;;;;;;;4.53;2.10;;;10.40;56.70;;;;;;4117973;28;20117;-81
2023/12/28 10:29:13;;;;;;;4.80;2.03;;;10.40;56.50;;;;;;4118097;28;20059;-80
2023/12/28 10:31:16;;;;;;;4.95;2.15;;;10.40;56.20;;;;;;4118807;28;20063;-78
2023/12/28 10:33:19;;;;;;;6.30;2.13;;;10.50;56.40;;;;;;4127875;28;20039;-80
2023/12/28 10:35:20;;;;;;;4.88;1.95;;;10.50;56.40;;;;;;4132329;28;20492;-80
2023/12/28 10:37:22;;;;;;;3.88;1.85;;;10.50;56.20;;;;;;4129560;28;20047;-80
2023/12/28 10:39:26;;;;;;;4.97;2.00;;;10.60;56.30;;;;;;4122368;28;20081;-81
2023/12/28 10:41:31;;;;;;;4.68;2.00;;;10.60;56.30;;;;;;4122055;28;20082;-79
2023/12/28 10:43:46;;;;;;;4.90;2.00;;;10.60;56.40;;;;;;4122119;28;20051;-79
2023/12/28 10:45:52;;;;;;;5.25;2.20;;;10.60;56.40;;;;;;4132980;28;20050;-79
2023/12/28 10:48:03;;;;;;;;;;;10.60;56.40;;;;;;4127587;28;20073;-78
2023/12/28 10:50:08;;;;;;;6.20;2.10;;;10.60;56.40;;;;;;4123701;28;19926;-78
2023/12/28 10:52:14;;;;;;;4.13;1.98;;;10.70;56.40;;;;;;4133153;28;20081;-78
2023/12/28 10:54:34;;;;;;;6.38;2.17;;;10.70;56.50;;;;;;4131641;28;20142;-78
2023/12/28 10:56:42;;;;;;;6.28;2.20;;;10.80;56.60;;;;;;4133001;28;20058;-78
2023/12/28 10:58:50;;;;;;;5.82;1.95;;;10.80;56.70;;;;;;4130252;28;20058;-82
2023/12/28 11:01:02;;;;;;;7.65;2.35;;;10.80;56.80;;;;;;4133508;28;20413;-83
2023/12/28 11:03:07;;;;;;;4.15;1.92;;;10.90;56.90;;;;;;4132994;28;20061;-84
2023/12/28 11:05:08;;;;;;;4.53;1.85;;;10.90;57.00;;;;;;4133426;28;20054;-77
2023/12/28 11:07:12;;;;;;;4.65;2.20;;;11.00;57.00;;;;;;4131911;28;20056;-79
2023/12/28 11:09:16;;;;;;;4.70;1.83;;;11.00;57.20;;;;;;4131269;28;20047;-82
2023/12/28 11:11:20;;;;;;;4.35;1.88;;;11.10;57.20;;;;;;4133157;28;20050;-81
2023/12/28 11:13:26;;;;;;;5.95;2.00;;;11.10;57.30;;;;;;4133275;28;20133;-79
2023/12/28 11:15:29;;;;;;;4.32;1.80;;;11.20;57.80;;;;;;4118504;28;20452;-80
2023/12/28 11:17:32;;;;;;;4.05;1.98;;;11.20;57.90;;;;;;4117230;28;20488;-79
2023/12/28 11:19:35;;;;;;;4.93;2.17;;;11.30;58.00;;;;;;4118243;28;20122;-75
2023/12/28 11:21:37;;;;;;;5.95;2.20;;;11.30;58.00;;;;;;4117179;28;20129;-80
2023/12/28 11:23:39;;;;;;;4.82;1.88;;;11.40;58.30;;;;;;4117019;28;20101;-79
2023/12/28 11:25:44;;;;;;;5.45;2.20;;;11.40;58.70;;;;;;4132048;28;20385;-80
2023/12/28 11:27:47;;;;;;;3.92;1.90;;;11.50;58.60;;;;;;4119297;28;20097;-81
2023/12/28 11:29:49;;;;;;;5.45;1.83;;;11.50;58.60;;;;;;4119286;28;20049;-75
2023/12/28 11:31:54;;;;;;;4.85;2.03;;;11.50;59.00;;;;;;4126179;28;20519;-79
2023/12/28 11:33:56;;;;;;;3.93;2.00;;;11.60;59.30;;;;;;4128286;28;20160;-80
2023/12/28 11:35:58;;;;;;;4.43;1.70;;;11.60;59.50;;;;;;4131560;28;20388;-78
2023/12/28 11:38:03;;;;;;;4.38;1.77;;;11.60;59.90;;;;;;4133095;28;20101;-76
2023/12/28 11:40:13;;;;;;;4.97;1.73;;;11.70;60.00;;;;;;4126795;28;20054;-77
2023/12/28 11:42:21;;;;;;;4.22;1.85;;;11.70;60.10;;;;;;4123887;28;20129;-80
2023/12/28 11:44:27;;;;;;;3.85;1.67;;;11.70;60.20;;;;;;4128991;28;20042;-79
2023/12/28 11:46:30;;;;;;;4.35;1.60;;;11.80;60.40;;;;;;4116843;28;20047;-75
2023/12/28 11:48:31;;;;;;;3.97;1.77;;;11.70;60.70;;;;;;4130194;28;20550;-79
2023/12/28 11:50:33;;;;;;;3.00;1.40;;;11.70;60.90;;;;;;4121243;28;20097;-79
2023/12/28 11:52:35;;;;;;;3.13;1.58;;;11.70;60.80;;;;;;4132811;28;20046;-76
2023/12/28 11:54:37;;;;;;;3.92;1.70;;;11.80;61.00;;;;;;4132903;28;20085;-77
2023/12/28 11:56:39;;;;;;;3.50;1.77;;;11.80;61.10;;;;;;4132000;28;20050;-79
2023/12/28 11:58:44;;;;;;;4.97;2.08;;;11.80;61.00;;;;;;4132553;28;20046;-78
2023/12/28 12:00:48;;;;;;;4.55;1.80;;;11.90;61.30;;;;;;4131303;28;20054;-78
2023/12/28 12:02:50;;;;;;;3.75;1.70;;;11.90;61.20;;;;;;4133006;28;20046;-81
2023/12/28 12:04:52;;;;;;;5.32;1.75;;;11.80;61.00;;;;;;4128893;28;20045;-78
2023/12/28 12:06:54;;;;;;;4.35;1.65;;;11.90;61.20;;;;;;4124526;28;20097;-78
2023/12/28 12:08:57;;;;;;;4.90;1.70;;;11.90;61.50;;;;;;4132344;28;20484;-78
2023/12/28 12:11:03;;;;;;;4.97;1.63;;;11.90;61.20;;;;;;4130163;28;20051;-76
2023/12/28 12:13:04;;;;;;;4.13;1.80;;;11.90;61.60;;;;;;4124378;28;20097;-79
2023/12/28 12:15:08;;;;;;;3.80;1.70;;;11.90;61.80;;;;;;4131814;28;20042;-78
2023/12/28 12:17:12;;;;;;;7.78;2.10;;;11.90;61.90;;;;;;4123316;28;20089;-79
2023/12/28 12:19:13;;;;;;;4.40;1.73;;;11.90;62.10;;;;;;4116517;28;20043;-77
2023/12/28 12:21:15;;;;;;;4.10;1.67;;;11.80;62.50;;;;;;4117808;28;20101;-76
2023/12/28 12:23:17;;;;;;;3.83;1.80;;;11.90;63.10;;;;;;4132572;28;20046;-77
2023/12/28 12:25:19;;;;;;;5.03;1.90;;;11.90;63.50;;;;;;4132569;28;20050;-76
2023/12/28 12:27:21;;;;;;;3.75;1.65;;;11.90;63.60;;;;;;4131638;28;20078;-75
2023/12/28 12:29:23;;;;;;;5.43;2.60;;;11.80;64.00;;;;;;4116598;28;20082;-76
2023/12/28 12:31:27;;;;;;;5.20;1.90;;;11.80;63.50;;;;;;4116201;28;20054;-77
2023/12/28 12:33:30;;;;;;;3.70;1.80;;;11.80;64.20;;;;;;4116203;28;20075;-75
2023/12/28 12:35:33;;;;;;;3.85;1.90;;;11.80;64.60;;;;;;4120620;28;20039;-75
2023/12/28 12:37:34;;;;;;;5.15;2.10;;;11.70;64.70;;;;;;4102839;28;20126;-76
2023/12/28 12:39:37;;;;;;;6.63;2.30;;;11.70;64.80;;;;;;4130680;28;20050;-79
2023/12/28 12:41:39;;;;;;;4.68;1.83;;;11.60;65.20;;;;;;4132721;28;20069;-79
2023/12/28 12:43:41;;;;;;;3.75;1.70;;;11.60;65.50;;;;;;4132509;28;20500;-79
2023/12/28 12:45:42;;;;;;;4.38;1.70;;;11.60;65.70;;;;;;4132518;28;20109;-78
2023/12/28 12:47:45;;;;;;;4.10;1.95;;;11.60;65.70;;;;;;4132205;28;20046;-79
2023/12/28 12:49:48;;;;;;;4.10;2.25;;;11.60;65.70;;;;;;4132455;28;20056;-79
2023/12/28 12:51:50;;;;;;;3.63;1.63;;;11.60;65.60;;;;;;4132347;28;20500;-77
2023/12/28 12:53:58;;;;;;;5.70;1.83;;;11.60;65.70;;;;;;4132458;28;20089;-78
2023/12/28 12:56:00;;;;;;;4.18;1.60;;;11.60;65.80;;;;;;4131981;28;20085;-78
2023/12/28 12:58:02;;;;;;;4.30;1.70;;;11.60;65.80;;;;;;4132325;28;20098;-77
2023/12/28 13:00:08;;;;;;;5.43;2.95;;;11.60;66.00;;;;;;4131497;28;20447;-78
2023/12/28 13:02:11;;;;;;;6.72;2.95;;;11.60;66.00;;;;;;4099385;28;20055;-79
2023/12/28 13:04:14;;;;;;;12.13;2.50;;;11.60;66.10;;;;;;4116470;28;20047;-78
2023/12/28 13:06:17;;;;;;;4.18;2.00;;;11.60;66.10;;;;;;4132287;28;20053;-77
2023/12/28 13:08:19;;;;;;;6.00;2.08;;;11.50;66.10;;;;;;4129977;28;20043;-79
2023/12/28 13:10:20;;;;;;;5.13;2.55;;;11.60;66.20;;;;;;4122501;28;20097;-79
2023/12/28 13:12:22;;;;;;;5.65;2.40;;;11.50;66.30;;;;;;4131882;28;20467;-79
2023/12/28 13:14:24;;;;;;;8.75;4.13;;;11.50;66.50;;;;;;4133022;28;20042;-79
2023/12/28 13:16:26;;;;;;;40.15;12.73;;;11.50;66.50;;;;;;4132038;28;20100;-78
2023/12/28 13:18:27;;;;;;;6.30;2.70;;;11.50;66.80;;;;;;4132169;28;20051;-79
2023/12/28 13:20:29;;;;;;;4.75;2.30;;;11.50;66.90;;;;;;4131996;28;20554;-78
2023/12/28 13:22:32;;;;;;;4.68;2.40;;;11.50;67.50;;;;;;4128843;28;20480;-78
2023/12/28 13:24:34;;;;;;;5.13;2.50;;;11.50;67.90;;;;;;4129935;28;20101;-79
2023/12/28 13:26:36;;;;;;;5.45;2.33;;;11.50;68.10;;;;;;4130611;28;20459;-79
2023/12/28 13:28:37;;;;;;;5.32;2.40;;;11.50;68.20;;;;;;4132950;28;20046;-78
2023/12/28 13:30:39;;;;;;;5.75;2.50;;;11.50;68.70;;;;;;4131298;28;20062;-78
2023/12/28 13:32:41;;;;;;;5.25;2.17;;;11.50;69.00;;;;;;4122091;28;20101;-79
2023/12/28 13:34:43;;;;;;;5.15;2.42;;;11.50;69.20;;;;;;4132651;28;20097;-78
2023/12/28 13:36:45;;;;;;;4.55;2.10;;;11.50;69.30;;;;;;4132873;28;20105;-75
2023/12/28 13:38:48;;;;;;;5.57;1.90;;;11.50;69.60;;;;;;4132919;28;20053;-78
2023/12/28 13:40:50;;;;;;;5.85;2.10;;;11.50;69.70;;;;;;4126772;28;20101;-78
2023/12/28 13:42:51;;;;;;;4.65;2.10;;;11.40;70.00;;;;;;4132736;28;20058;-79
2023/12/28 13:44:53;;;;;;;4.18;2.13;;;11.40;70.50;;;;;;4129524;28;20042;-80
2023/12/28 13:46:55;;;;;;;4.70;2.20;;;11.40;71.60;;;;;;4116502;28;20054;-79
2023/12/28 13:48:57;;;;;;;4.55;1.83;;;11.40;71.30;;;;;;4118722;28;20046;-79
2023/12/28 13:50:58;;;;;;;4.43;2.10;;;11.40;72.00;;;;;;4128291;28;20483;-78
2023/12/28 13:53:00;;;;;;;4.68;2.00;;;11.40;72.50;;;;;;4132362;28;20101;-78
2023/12/28 13:55:04;;;;;;;4.10;2.10;;;11.30;72.90;;;;;;4132673;28;20108;-79
2023/12/28 13:57:06;;;;;;;24.17;11.18;;;11.30;73.70;;;;;;4132470;28;20050;-80
2023/12/28 13:59:07;;;;;;;25.92;12.60;;;11.30;74.20;;;;;;4125669;28;20043;-78
2023/12/28 14:01:10;;;;;;;11.98;5.43;;;11.30;74.40;;;;;;4124161;28;20393;-80
2023/12/28 14:03:12;;;;;;;5.18;2.60;;;11.30;75.20;;;;;;4121138;28;20082;-80
2023/12/28 14:05:12;;;;;;;4.10;2.20;;;11.30;76.30;;;;;;4121728;28;20100;-77
2023/12/28 14:07:14;;;;;;;5.82;2.25;;;11.30;76.30;;;;;;4132656;28;20076;-78
2023/12/28 14:09:19;;;;;;;5.75;2.47;;;11.30;77.30;;;;;;4132102;28;20054;-80
2023/12/28 14:11:23;;;;;;;5.95;2.33;;;11.20;77.90;;;;;;4132481;28;20399;-81
2023/12/28 14:13:25;;;;;;;5.10;2.50;;;11.20;79.10;;;;;;4121157;28;20058;-80
2023/12/28 14:15:27;;;;;;;4.35;2.20;;;11.20;79.50;;;;;;4129919;28;20046;-81
2023/12/28 14:17:30;;;;;;;4.55;2.30;;;11.10;80.30;;;;;;4128307;28;20452;-79
2023/12/28 14:19:32;;;;;;;4.85;2.08;;;11.10;80.50;;;;;;4116663;28;20058;-78
2023/12/28 14:21:37;;;;;;;4.88;2.35;;;11.00;81.50;;;;;;4116022;28;20728;-79
2023/12/28 14:23:40;;;;;;;5.43;2.53;;;11.00;81.40;;;;;;4116339;28;20460;-80
2023/12/28 14:25:41;;;;;;;6.75;3.47;;;11.00;81.70;;;;;;4116203;28;20054;-78
2023/12/28 14:27:45;;;;;;;6.95;3.80;;;10.90;82.90;;;;;;4129280;28;20050;-78
2023/12/28 14:29:50;;;;;;;8.60;3.53;;;10.90;83.20;;;;;;4125701;28;20059;-78
2023/12/28 14:31:53;;;;;;;5.80;2.85;;;10.90;83.20;;;;;;4118807;28;20051;-79
2023/12/28 14:33:55;;;;;;;4.90;2.65;;;10.90;83.80;;;;;;4117026;28;20440;-79
2023/12/28 14:35:59;;;;;;;5.07;2.30;;;10.90;83.40;;;;;;4121149;28;20053;-78
2023/12/28 14:38:00;;;;;;;6.32;2.78;;;10.90;83.70;;;;;;4118316;28;20055;-79
2023/12/28 14:40:06;;;;;;;5.50;2.70;;;10.90;84.90;;;;;;4134537;28;20141;-78
2023/12/28 14:42:08;;;;;;;7.80;3.25;;;10.80;84.70;;;;;;4135850;28;20054;-76
2023/12/28 14:44:11;;;;;;;20.52;12.05;;;10.80;85.10;;;;;;4136287;28;20050;-79
2023/12/28 14:46:12;;;;;;;15.75;8.10;;;10.80;85.80;;;;;;4132622;28;20046;-76
2023/12/28 14:48:14;;;;;;;17.00;8.88;;;10.80;85.50;;;;;;4117063;28;20054;-80
2023/12/28 14:50:17;;;;;;;6.90;4.80;;;10.70;85.30;;;;;;4118504;28;20556;-79
2023/12/28 14:52:18;;;;;;;14.20;7.82;;;10.70;85.50;;;;;;4125509;28;20058;-80
2023/12/28 14:54:20;;;;;;;20.55;12.43;;;10.70;85.60;;;;;;4135432;28;20046;-77
2023/12/28 14:56:21;;;;;;;26.77;15.73;;;10.80;85.30;;;;;;4133958;28;20060;-79
2023/12/28 14:58:23;;;;;;;12.68;9.05;;;10.80;85.00;;;;;;4131670;28;20148;-77
2023/12/28 15:00:26;;;;;;;11.43;7.30;;;10.80;85.00;;;;;;4131822;28;20054;-79
2023/12/28 15:02:28;;;;;;;11.10;6.95;;;10.80;85.50;;;;;;4131854;28;20054;-77
2023/12/28 15:04:30;;;;;;;10.23;6.75;;;10.70;86.10;;;;;;4131593;28;20042;-76
2023/12/28 15:06:32;;;;;;;9.48;5.90;;;10.70;86.30;;;;;;4132022;28;20050;-76
2023/12/28 15:08:33;;;;;;;9.43;5.40;;;10.70;86.40;;;;;;4131857;28;20077;-78
2023/12/28 15:10:35;;;;;;;8.50;5.40;;;10.70;87.10;;;;;;4131373;28;20046;-78
2023/12/28 15:12:37;;;;;;;8.32;4.65;;;10.60;86.70;;;;;;4131674;28;20140;-78
2023/12/28 15:14:40;;;;;;;10.05;5.00;;;10.60;86.90;;;;;;4130976;28;20488;-79
2023/12/28 15:16:44;;;;;;;9.40;5.07;;;10.60;87.50;;;;;;4118398;28;20844;-79
2023/12/28 15:18:46;;;;;;;12.88;5.45;;;10.50;87.40;;;;;;4115267;28;20058;-81
2023/12/28 15:20:49;;;;;;;13.77;7.10;;;10.50;87.60;;;;;;4126601;28;20137;-78
2023/12/28 15:22:52;;;;;;;11.93;6.18;;;10.50;87.40;;;;;;4129636;28;20050;-78
2023/12/28 15:24:55;;;;;;;10.80;5.72;;;10.50;87.70;;;;;;4130722;28;20125;-78
2023/12/28 15:26:56;;;;;;;9.20;4.88;;;10.50;87.70;;;;;;4131315;28;20498;-77
2023/12/28 15:28:58;;;;;;;8.90;4.25;;;10.50;87.80;;;;;;4130970;28;20050;-79
2023/12/28 15:31:00;;;;;;;10.35;4.90;;;10.50;87.80;;;;;;4131063;28;20104;-76
2023/12/28 15:33:03;;;;;;;7.75;3.83;;;10.40;87.80;;;;;;4131249;28;20050;-76
2023/12/28 15:35:06;;;;;;;8.57;3.78;;;10.40;87.70;;;;;;4123419;28;20218;-76
2023/12/28 15:37:08;;;;;;;6.32;3.88;;;10.40;87.70;;;;;;4115243;28;20058;-79
2023/12/28 15:39:10;;;;;;;6.25;3.35;;;10.40;87.30;;;;;;4114991;28;20459;-79
2023/12/28 15:41:11;;;;;;;7.78;3.90;;;10.40;86.90;;;;;;4114444;28;20080;-80
2023/12/28 15:43:13;;;;;;;7.47;3.65;;;10.40;87.00;;;;;;4130040;28;20077;-79
2023/12/28 15:45:16;;;;;;;5.93;2.88;;;10.30;86.50;;;;;;4130883;28;20053;-78
2023/12/28 15:47:17;;;;;;;5.65;2.60;;;10.40;85.80;;;;;;4124584;28;20109;-79
2023/12/28 15:49:21;;;;;;;4.97;2.40;;;10.30;83.60;;;;;;4114834;28;20073;-79
2023/12/28 15:51:23;;;;;;;5.45;2.17;;;10.30;83.70;;;;;;4114569;28;20051;-78
2023/12/28 15:53:25;;;;;;;4.25;2.08;;;10.30;81.80;;;;;;4123695;28;20141;-79
2023/12/28 15:55:27;;;;;;;5.30;1.90;;;10.30;80.00;;;;;;4114801;28;20074;-79
2023/12/28 15:57:29;;;;;;;3.97;1.65;;;10.30;79.30;;;;;;4114578;28;20201;-80
2023/12/28 15:59:30;;;;;;;4.68;1.80;;;10.30;78.90;;;;;;4116121;28;20050;-78
2023/12/28 16:01:32;;;;;;;5.32;1.80;;;10.30;79.00;;;;;;4114468;28;20062;-81
2023/12/28 16:03:34;;;;;;;4.40;1.80;;;10.30;78.40;;;;;;4130225;28;20062;-79
2023/12/28 16:05:37;;;;;;;5.72;2.17;;;10.20;78.00;;;;;;4118656;28;20054;-79
2023/12/28 16:07:39;;;;;;;4.55;2.10;;;10.20;77.90;;;;;;4130453;28;20051;-81
2023/12/28 16:09:41;;;;;;;4.70;2.28;;;10.20;79.00;;;;;;4130194;28;20050;-78
2023/12/28 16:11:43;;;;;;;3.90;1.90;;;10.20;78.70;;;;;;4114649;28;20137;-79
2023/12/28 16:13:46;;;;;;;5.60;2.20;;;10.10;78.80;;;;;;4114676;28;20486;-77
2023/12/28 16:15:47;;;;;;;4.78;2.33;;;10.20;78.20;;;;;;4114395;28;20059;-79
2023/12/28 16:17:56;;;;;;;4.13;2.17;;;10.20;77.90;;;;;;4114623;28;20062;-78
2023/12/28 16:19:59;;;;;;;6.03;2.50;;;10.30;77.60;;;;;;4114338;28;20070;-80
2023/12/28 16:22:03;;;;;;;4.60;2.60;;;10.30;77.30;;;;;;4114707;28;20551;-79
2023/12/28 16:24:07;;;;;;;9.80;3.28;;;10.20;77.40;;;;;;4120599;28;20093;-76
2023/12/28 16:26:09;;;;;;;5.50;2.60;;;10.20;77.70;;;;;;4116025;28;20051;-82
2023/12/28 16:28:11;;;;;;;5.55;3.17;;;10.20;77.60;;;;;;4130395;28;20042;-80
2023/12/28 16:30:13;;;;;;;5.07;2.45;;;10.20;77.30;;;;;;4130305;28;20050;-78
2023/12/28 16:32:15;;;;;;;12.77;6.18;;;10.20;77.30;;;;;;4120613;28;20099;-79
2023/12/28 16:34:17;;;;;;;7.68;3.83;;;10.20;77.20;;;;;;4117028;28;20527;-78
2023/12/28 16:36:18;;;;;;;7.03;3.33;;;10.20;77.10;;;;;;4127253;28;20109;-79
2023/12/28 16:38:21;;;;;;;5.43;2.67;;;10.20;76.80;;;;;;4114351;28;20054;-75
2023/12/28 16:40:22;;;;;;;5.35;2.65;;;10.20;76.50;;;;;;4112484;28;20097;-76
2023/12/28 16:42:24;;;;;;;5.65;2.88;;;10.30;77.40;;;;;;4114218;28;20110;-77